Greenwood, Louisiana
Current Conditions -  °F | °C
As of 9:56 AM on Friday 19 Dec 2014 (Local Time) from KSHV Reporting Station
Moderate Rain Moderate Rain  
Wind Chill: 42°   Ceiling: 700
Heat Index: 47°   Visibility: 2mi
Dew Point: 46°   Wind: 12mph
Humidity: 97%   Direction: 350°N
Pressure: 30.24"   Gusts: NA
Location:  32.44°N, 93.97°W
Report Text: KSHV 191556Z 35010KT 2SM RA BR BKN007 BKN012 OVC019 08/08 A3024 RMK AO2 SLP239 P0028 T00830078
Loading
Personal Weather Stations






























Interactive Weather Map New forecast layout! Learn more

10-Day Weather Forecast

Advertisements
Track Severe Weather on mobile